sensor_id;sensor_type;location;lat;lon;timestamp;pressure;altitude;pressure_sealevel;temperature
68446;BMP280;35789;48.414;12.768;2024-02-16T00:00:00;97010.0;;;
68446;BMP280;35789;48.414;12.768;2024-02-16T00:05:00;97010.0;;;
68446;BMP280;35789;48.414;12.768;2024-02-16T00:10:00;97000.0;;;
68446;BMP280;35789;48.414;12.768;2024-02-16T00:15:01;97000.0;;;
68446;BMP280;35789;48.414;12.768;2024-02-16T00:20:00;97000.0;;;
68446;BMP280;35789;48.414;12.768;2024-02-16T00:25:00;96990.0;;;
68446;BMP280;35789;48.414;12.768;2024-02-16T00:30:00;96990.0;;;
68446;BMP280;35789;48.414;12.768;2024-02-16T00:35:00;96990.0;;;
68446;BMP280;35789;48.414;12.768;2024-02-16T00:40:00;96970.0;;;
68446;BMP280;35789;48.414;12.768;2024-02-16T00:45:00;96970.0;;;
68446;BMP280;35789;48.414;12.768;2024-02-16T00:50:00;96980.0;;;
68446;BMP280;35789;48.414;12.768;2024-02-16T00:55:00;96990.0;;;
68446;BMP280;35789;48.414;12.768;2024-02-16T01:00:00;96980.0;;;
68446;BMP280;35789;48.414;12.768;2024-02-16T01:05:00;96980.0;;;
68446;BMP280;35789;48.414;12.768;2024-02-16T01:10:00;96980.0;;;
68446;BMP280;35789;48.414;12.768;2024-02-16T01:15:00;96990.0;;;
68446;BMP280;35789;48.414;12.768;2024-02-16T01:20:00;96980.0;;;
68446;BMP280;35789;48.414;12.768;2024-02-16T01:25:00;96980.0;;;
68446;BMP280;35789;48.414;12.768;2024-02-16T01:30:00;96980.0;;;
68446;BMP280;35789;48.414;12.768;2024-02-16T01:35:00;96980.0;;;
68446;BMP280;35789;48.414;12.768;2024-02-16T01:40:01;96980.0;;;
68446;BMP280;35789;48.414;12.768;2024-02-16T01:45:00;96980.0;;;
68446;BMP280;35789;48.414;12.768;2024-02-16T01:50:01;96990.0;;;
68446;BMP280;35789;48.414;12.768;2024-02-16T01:55:00;96970.0;;;
68446;BMP280;35789;48.414;12.768;2024-02-16T02:00:00;96970.0;;;
68446;BMP280;35789;48.414;12.768;2024-02-16T02:05:00;96970.0;;;
68446;BMP280;35789;48.414;12.768;2024-02-16T02:10:00;96960.0;;;
68446;BMP280;35789;48.414;12.768;2024-02-16T02:15:00;96960.0;;;
68446;BMP280;35789;48.414;12.768;2024-02-16T02:20:00;96960.0;;;
68446;BMP280;35789;48.414;12.768;2024-02-16T02:25:00;96960.0;;;
68446;BMP280;35789;48.414;12.768;2024-02-16T02:30:00;96950.0;;;
68446;BMP280;35789;48.414;12.768;2024-02-16T02:35:01;96950.0;;;
68446;BMP280;35789;48.414;12.768;2024-02-16T02:40:00;96930.0;;;
68446;BMP280;35789;48.414;12.768;2024-02-16T02:45:00;96930.0;;;
68446;BMP280;35789;48.414;12.768;2024-02-16T02:50:00;96930.0;;;
68446;BMP280;35789;48.414;12.768;2024-02-16T02:55:00;96930.0;;;
68446;BMP280;35789;48.414;12.768;2024-02-16T03:00:06;96930.0;;;
68446;BMP280;35789;48.414;12.768;2024-02-16T03:05:00;96920.0;;;
68446;BMP280;35789;48.414;12.768;2024-02-16T03:10:01;96920.0;;;
68446;BMP280;35789;48.414;12.768;2024-02-16T03:15:00;96920.0;;;
68446;BMP280;35789;48.414;12.768;2024-02-16T03:20:00;96930.0;;;
68446;BMP280;35789;48.414;12.768;2024-02-16T03:25:00;96930.0;;;
68446;BMP280;35789;48.414;12.768;2024-02-16T03:30:00;96930.0;;;
68446;BMP280;35789;48.414;12.768;2024-02-16T03:35:00;96920.0;;;
68446;BMP280;35789;48.414;12.768;2024-02-16T03:40:00;96930.0;;;
68446;BMP280;35789;48.414;12.768;2024-02-16T03:45:00;96930.0;;;
68446;BMP280;35789;48.414;12.768;2024-02-16T03:50:00;96940.0;;;
68446;BMP280;35789;48.414;12.768;2024-02-16T03:55:00;96950.0;;;
68446;BMP280;35789;48.414;12.768;2024-02-16T04:00:00;96950.0;;;
68446;BMP280;35789;48.414;12.768;2024-02-16T04:05:00;96960.0;;;
68446;BMP280;35789;48.414;12.768;2024-02-16T04:10:00;96950.0;;;
68446;BMP280;35789;48.414;12.768;2024-02-16T04:15:00;96960.0;;;
68446;BMP280;35789;48.414;12.768;2024-02-16T04:20:00;96960.0;;;
68446;BMP280;35789;48.414;12.768;2024-02-16T04:25:00;96960.0;;;
68446;BMP280;35789;48.414;12.768;2024-02-16T04:30:00;96950.0;;;
68446;BMP280;35789;48.414;12.768;2024-02-16T04:35:00;96960.0;;;
68446;BMP280;35789;48.414;12.768;2024-02-16T04:40:00;96960.0;;;
68446;BMP280;35789;48.414;12.768;2024-02-16T04:45:00;96960.0;;;
68446;BMP280;35789;48.414;12.768;2024-02-16T04:55:00;96970.0;;;
68446;BMP280;35789;48.414;12.768;2024-02-16T05:00:00;96960.0;;;
68446;BMP280;35789;48.414;12.768;2024-02-16T05:05:00;96970.0;;;
68446;BMP280;35789;48.414;12.768;2024-02-16T05:10:00;96970.0;;;
68446;BMP280;35789;48.414;12.768;2024-02-16T05:15:00;96970.0;;;
68446;BMP280;35789;48.414;12.768;2024-02-16T05:20:01;96970.0;;;
68446;BMP280;35789;48.414;12.768;2024-02-16T05:25:00;96980.0;;;
68446;BMP280;35789;48.414;12.768;2024-02-16T05:30:00;96980.0;;;
68446;BMP280;35789;48.414;12.768;2024-02-16T05:35:00;96990.0;;;
68446;BMP280;35789;48.414;12.768;2024-02-16T05:40:00;97000.0;;;
68446;BMP280;35789;48.414;12.768;2024-02-16T05:45:00;97000.0;;;
68446;BMP280;35789;48.414;12.768;2024-02-16T05:50:00;96990.0;;;
68446;BMP280;35789;48.414;12.768;2024-02-16T05:55:00;96990.0;;;
68446;BMP280;35789;48.414;12.768;2024-02-16T06:00:00;97000.0;;;
68446;BMP280;35789;48.414;12.768;2024-02-16T06:05:03;97000.0;;;
68446;BMP280;35789;48.414;12.768;2024-02-16T06:10:00;97010.0;;;
68446;BMP280;35789;48.414;12.768;2024-02-16T06:15:00;97010.0;;;
68446;BMP280;35789;48.414;12.768;2024-02-16T06:25:00;97010.0;;;
68446;BMP280;35789;48.414;12.768;2024-02-16T06:30:01;97010.0;;;
68446;BMP280;35789;48.414;12.768;2024-02-16T06:35:00;97010.0;;;
68446;BMP280;35789;48.414;12.768;2024-02-16T06:40:00;97020.0;;;
68446;BMP280;35789;48.414;12.768;2024-02-16T06:45:00;97020.0;;;
68446;BMP280;35789;48.414;12.768;2024-02-16T06:50:00;97030.0;;;
68446;BMP280;35789;48.414;12.768;2024-02-16T06:55:00;97040.0;;;
68446;BMP280;35789;48.414;12.768;2024-02-16T07:00:00;97040.0;;;
68446;BMP280;35789;48.414;12.768;2024-02-16T07:05:00;97050.0;;;
68446;BMP280;35789;48.414;12.768;2024-02-16T07:10:00;97050.0;;;
68446;BMP280;35789;48.414;12.768;2024-02-16T07:15:00;97070.0;;;
68446;BMP280;35789;48.414;12.768;2024-02-16T07:20:00;97070.0;;;
68446;BMP280;35789;48.414;12.768;2024-02-16T07:25:00;97060.0;;;
68446;BMP280;35789;48.414;12.768;2024-02-16T07:30:00;97060.0;;;
68446;BMP280;35789;48.414;12.768;2024-02-16T07:35:00;97060.0;;;
68446;BMP280;35789;48.414;12.768;2024-02-16T07:40:00;97060.0;;;
68446;BMP280;35789;48.414;12.768;2024-02-16T07:45:00;97070.0;;;
68446;BMP280;35789;48.414;12.768;2024-02-16T07:50:00;97070.0;;;
68446;BMP280;35789;48.414;12.768;2024-02-16T07:55:00;97070.0;;;
68446;BMP280;35789;48.414;12.768;2024-02-16T08:00:00;97070.0;;;
68446;BMP280;35789;48.414;12.768;2024-02-16T08:05:00;97060.0;;;
68446;BMP280;35789;48.414;12.768;2024-02-16T08:10:00;97060.0;;;
68446;BMP280;35789;48.414;12.768;2024-02-16T08:15:00;97060.0;;;
68446;BMP280;35789;48.414;12.768;2024-02-16T08:20:01;97060.0;;;
68446;BMP280;35789;48.414;12.768;2024-02-16T08:25:00;97070.0;;;
68446;BMP280;35789;48.414;12.768;2024-02-16T08:30:00;97070.0;;;
68446;BMP280;35789;48.414;12.768;2024-02-16T08:35:00;97060.0;;;
68446;BMP280;35789;48.414;12.768;2024-02-16T08:40:01;97070.0;;;
68446;BMP280;35789;48.414;12.768;2024-02-16T08:45:00;97080.0;;;
68446;BMP280;35789;48.414;12.768;2024-02-16T08:50:00;97080.0;;;
68446;BMP280;35789;48.414;12.768;2024-02-16T08:55:00;97090.0;;;
68446;BMP280;35789;48.414;12.768;2024-02-16T09:00:00;97090.0;;;
68446;BMP280;35789;48.414;12.768;2024-02-16T09:05:00;97090.0;;;
68446;BMP280;35789;48.414;12.768;2024-02-16T09:10:00;97090.0;;;
68446;BMP280;35789;48.414;12.768;2024-02-16T09:15:00;97090.0;;;
68446;BMP280;35789;48.414;12.768;2024-02-16T09:20:00;97090.0;;;
68446;BMP280;35789;48.414;12.768;2024-02-16T09:25:00;97090.0;;;
68446;BMP280;35789;48.414;12.768;2024-02-16T09:30:00;97090.0;;;
68446;BMP280;35789;48.414;12.768;2024-02-16T09:35:00;97090.0;;;
68446;BMP280;35789;48.414;12.768;2024-02-16T09:40:00;97090.0;;;
68446;BMP280;35789;48.414;12.768;2024-02-16T09:45:00;97080.0;;;
68446;BMP280;35789;48.414;12.768;2024-02-16T09:50:00;97090.0;;;
68446;BMP280;35789;48.414;12.768;2024-02-16T09:55:00;97090.0;;;
68446;BMP280;35789;48.414;12.768;2024-02-16T10:00:01;97090.0;;;
68446;BMP280;35789;48.414;12.768;2024-02-16T10:05:10;97090.0;;;
68446;BMP280;35789;48.414;12.768;2024-02-16T10:10:00;97090.0;;;
68446;BMP280;35789;48.414;12.768;2024-02-16T10:15:00;97090.0;;;
68446;BMP280;35789;48.414;12.768;2024-02-16T10:20:00;97090.0;;;
68446;BMP280;35789;48.414;12.768;2024-02-16T10:25:07;97090.0;;;
68446;BMP280;35789;48.414;12.768;2024-02-16T10:30:02;97080.0;;;
68446;BMP280;35789;48.414;12.768;2024-02-16T10:35:03;97080.0;;;
68446;BMP280;35789;48.414;12.768;2024-02-16T10:40:01;97080.0;;;
68446;BMP280;35789;48.414;12.768;2024-02-16T10:45:00;97070.0;;;
68446;BMP280;35789;48.414;12.768;2024-02-16T10:50:03;97060.0;;;
68446;BMP280;35789;48.414;12.768;2024-02-16T10:55:00;97060.0;;;
68446;BMP280;35789;48.414;12.768;2024-02-16T11:00:00;97060.0;;;
68446;BMP280;35789;48.414;12.768;2024-02-16T11:05:08;97070.0;;;
68446;BMP280;35789;48.414;12.768;2024-02-16T11:10:01;97060.0;;;
68446;BMP280;35789;48.414;12.768;2024-02-16T11:15:00;97060.0;;;
68446;BMP280;35789;48.414;12.768;2024-02-16T11:20:00;97060.0;;;
68446;BMP280;35789;48.414;12.768;2024-02-16T11:25:00;97050.0;;;
68446;BMP280;35789;48.414;12.768;2024-02-16T11:30:02;97050.0;;;
68446;BMP280;35789;48.414;12.768;2024-02-16T11:35:05;97040.0;;;
68446;BMP280;35789;48.414;12.768;2024-02-16T11:40:00;97040.0;;;
68446;BMP280;35789;48.414;12.768;2024-02-16T11:45:00;97040.0;;;
68446;BMP280;35789;48.414;12.768;2024-02-16T11:50:03;97040.0;;;
68446;BMP280;35789;48.414;12.768;2024-02-16T11:55:00;97030.0;;;
68446;BMP280;35789;48.414;12.768;2024-02-16T12:00:00;97030.0;;;
68446;BMP280;35789;48.414;12.768;2024-02-16T12:05:01;97020.0;;;
68446;BMP280;35789;48.414;12.768;2024-02-16T12:10:02;97010.0;;;
68446;BMP280;35789;48.414;12.768;2024-02-16T12:15:01;97010.0;;;
68446;BMP280;35789;48.414;12.768;2024-02-16T12:20:00;97010.0;;;
68446;BMP280;35789;48.414;12.768;2024-02-16T12:25:00;97010.0;;;
68446;BMP280;35789;48.414;12.768;2024-02-16T12:30:00;97010.0;;;
68446;BMP280;35789;48.414;12.768;2024-02-16T12:35:00;97010.0;;;
68446;BMP280;35789;48.414;12.768;2024-02-16T12:40:00;97010.0;;;
68446;BMP280;35789;48.414;12.768;2024-02-16T12:45:00;97010.0;;;
68446;BMP280;35789;48.414;12.768;2024-02-16T12:50:00;97010.0;;;
68446;BMP280;35789;48.414;12.768;2024-02-16T12:55:00;97010.0;;;
68446;BMP280;35789;48.414;12.768;2024-02-16T13:00:00;97000.0;;;
68446;BMP280;35789;48.414;12.768;2024-02-16T13:10:00;97000.0;;;
68446;BMP280;35789;48.414;12.768;2024-02-16T13:15:00;97000.0;;;
68446;BMP280;35789;48.414;12.768;2024-02-16T13:20:00;97010.0;;;
68446;BMP280;35789;48.414;12.768;2024-02-16T13:25:00;97010.0;;;
68446;BMP280;35789;48.414;12.768;2024-02-16T13:30:01;97010.0;;;
68446;BMP280;35789;48.414;12.768;2024-02-16T13:35:00;97000.0;;;
68446;BMP280;35789;48.414;12.768;2024-02-16T13:40:00;97000.0;;;
68446;BMP280;35789;48.414;12.768;2024-02-16T13:45:00;97000.0;;;
68446;BMP280;35789;48.414;12.768;2024-02-16T13:50:01;97000.0;;;
68446;BMP280;35789;48.414;12.768;2024-02-16T13:55:00;97000.0;;;
68446;BMP280;35789;48.414;12.768;2024-02-16T14:00:00;97000.0;;;
68446;BMP280;35789;48.414;12.768;2024-02-16T14:05:00;97000.0;;;
68446;BMP280;35789;48.414;12.768;2024-02-16T14:10:00;97010.0;;;
68446;BMP280;35789;48.414;12.768;2024-02-16T14:15:00;97010.0;;;
68446;BMP280;35789;48.414;12.768;2024-02-16T14:20:00;97010.0;;;
68446;BMP280;35789;48.414;12.768;2024-02-16T14:25:00;97010.0;;;
68446;BMP280;35789;48.414;12.768;2024-02-16T14:30:00;97020.0;;;
68446;BMP280;35789;48.414;12.768;2024-02-16T14:35:00;97030.0;;;
68446;BMP280;35789;48.414;12.768;2024-02-16T14:40:00;97030.0;;;
68446;BMP280;35789;48.414;12.768;2024-02-16T14:45:00;97040.0;;;
68446;BMP280;35789;48.414;12.768;2024-02-16T14:50:00;97040.0;;;
68446;BMP280;35789;48.414;12.768;2024-02-16T14:55:00;97040.0;;;
68446;BMP280;35789;48.414;12.768;2024-02-16T15:00:00;97040.0;;;
68446;BMP280;35789;48.414;12.768;2024-02-16T15:05:00;97040.0;;;
68446;BMP280;35789;48.414;12.768;2024-02-16T15:10:00;97040.0;;;
68446;BMP280;35789;48.414;12.768;2024-02-16T15:15:00;97050.0;;;
68446;BMP280;35789;48.414;12.768;2024-02-16T15:20:00;97050.0;;;
68446;BMP280;35789;48.414;12.768;2024-02-16T15:25:00;97050.0;;;
68446;BMP280;35789;48.414;12.768;2024-02-16T15:30:00;97050.0;;;
68446;BMP280;35789;48.414;12.768;2024-02-16T15:35:00;97050.0;;;
68446;BMP280;35789;48.414;12.768;2024-02-16T15:40:00;97050.0;;;
68446;BMP280;35789;48.414;12.768;2024-02-16T15:45:02;97050.0;;;
68446;BMP280;35789;48.414;12.768;2024-02-16T15:50:00;97060.0;;;
68446;BMP280;35789;48.414;12.768;2024-02-16T15:55:00;97060.0;;;
68446;BMP280;35789;48.414;12.768;2024-02-16T16:00:00;97070.0;;;
68446;BMP280;35789;48.414;12.768;2024-02-16T16:05:00;97070.0;;;
68446;BMP280;35789;48.414;12.768;2024-02-16T16:10:00;97070.0;;;
68446;BMP280;35789;48.414;12.768;2024-02-16T16:15:00;97090.0;;;
68446;BMP280;35789;48.414;12.768;2024-02-16T16:20:00;97090.0;;;
68446;BMP280;35789;48.414;12.768;2024-02-16T16:25:00;97090.0;;;
68446;BMP280;35789;48.414;12.768;2024-02-16T16:30:00;97090.0;;;
68446;BMP280;35789;48.414;12.768;2024-02-16T16:35:00;97100.0;;;
68446;BMP280;35789;48.414;12.768;2024-02-16T16:40:00;97110.0;;;
68446;BMP280;35789;48.414;12.768;2024-02-16T16:45:00;97120.0;;;
68446;BMP280;35789;48.414;12.768;2024-02-16T16:50:00;97130.0;;;
68446;BMP280;35789;48.414;12.768;2024-02-16T16:55:00;97130.0;;;
68446;BMP280;35789;48.414;12.768;2024-02-16T17:00:00;97140.0;;;
68446;BMP280;35789;48.414;12.768;2024-02-16T17:05:01;97150.0;;;
68446;BMP280;35789;48.414;12.768;2024-02-16T17:10:00;97150.0;;;
68446;BMP280;35789;48.414;12.768;2024-02-16T17:15:00;97160.0;;;
68446;BMP280;35789;48.414;12.768;2024-02-16T17:20:00;97160.0;;;
68446;BMP280;35789;48.414;12.768;2024-02-16T17:25:00;97170.0;;;
68446;BMP280;35789;48.414;12.768;2024-02-16T17:30:01;97180.0;;;
68446;BMP280;35789;48.414;12.768;2024-02-16T17:35:00;97190.0;;;
68446;BMP280;35789;48.414;12.768;2024-02-16T17:40:00;97200.0;;;
68446;BMP280;35789;48.414;12.768;2024-02-16T17:45:00;97200.0;;;
68446;BMP280;35789;48.414;12.768;2024-02-16T17:50:00;97210.0;;;
68446;BMP280;35789;48.414;12.768;2024-02-16T17:55:00;97220.0;;;
68446;BMP280;35789;48.414;12.768;2024-02-16T18:00:00;97220.0;;;
68446;BMP280;35789;48.414;12.768;2024-02-16T18:05:00;97230.0;;;
68446;BMP280;35789;48.414;12.768;2024-02-16T18:10:00;97240.0;;;
68446;BMP280;35789;48.414;12.768;2024-02-16T18:15:00;97250.0;;;
68446;BMP280;35789;48.414;12.768;2024-02-16T18:25:00;97250.0;;;
68446;BMP280;35789;48.414;12.768;2024-02-16T18:30:00;97250.0;;;
68446;BMP280;35789;48.414;12.768;2024-02-16T18:35:00;97250.0;;;
68446;BMP280;35789;48.414;12.768;2024-02-16T18:40:01;97260.0;;;
68446;BMP280;35789;48.414;12.768;2024-02-16T18:45:00;97260.0;;;
68446;BMP280;35789;48.414;12.768;2024-02-16T18:50:00;97260.0;;;
68446;BMP280;35789;48.414;12.768;2024-02-16T18:55:00;97270.0;;;
68446;BMP280;35789;48.414;12.768;2024-02-16T19:00:02;97270.0;;;
68446;BMP280;35789;48.414;12.768;2024-02-16T19:10:00;97290.0;;;
68446;BMP280;35789;48.414;12.768;2024-02-16T19:15:00;97280.0;;;
68446;BMP280;35789;48.414;12.768;2024-02-16T19:20:00;97290.0;;;
68446;BMP280;35789;48.414;12.768;2024-02-16T19:25:00;97300.0;;;
68446;BMP280;35789;48.414;12.768;2024-02-16T19:30:00;97300.0;;;
68446;BMP280;35789;48.414;12.768;2024-02-16T19:35:00;97310.0;;;
68446;BMP280;35789;48.414;12.768;2024-02-16T19:40:00;97310.0;;;
68446;BMP280;35789;48.414;12.768;2024-02-16T19:45:00;97310.0;;;
68446;BMP280;35789;48.414;12.768;2024-02-16T19:55:00;97340.0;;;
68446;BMP280;35789;48.414;12.768;2024-02-16T20:00:00;97340.0;;;
68446;BMP280;35789;48.414;12.768;2024-02-16T20:05:00;97340.0;;;
68446;BMP280;35789;48.414;12.768;2024-02-16T20:10:00;97350.0;;;
68446;BMP280;35789;48.414;12.768;2024-02-16T20:15:00;97350.0;;;
68446;BMP280;35789;48.414;12.768;2024-02-16T20:20:00;97360.0;;;
68446;BMP280;35789;48.414;12.768;2024-02-16T20:25:00;97360.0;;;
68446;BMP280;35789;48.414;12.768;2024-02-16T20:30:00;97370.0;;;
68446;BMP280;35789;48.414;12.768;2024-02-16T20:35:02;97370.0;;;
68446;BMP280;35789;48.414;12.768;2024-02-16T20:40:00;97370.0;;;
68446;BMP280;35789;48.414;12.768;2024-02-16T20:45:00;97380.0;;;
68446;BMP280;35789;48.414;12.768;2024-02-16T20:50:00;97380.0;;;
68446;BMP280;35789;48.414;12.768;2024-02-16T20:55:00;97390.0;;;
68446;BMP280;35789;48.414;12.768;2024-02-16T21:00:00;97390.0;;;
68446;BMP280;35789;48.414;12.768;2024-02-16T21:05:00;97390.0;;;
68446;BMP280;35789;48.414;12.768;2024-02-16T21:10:00;97400.0;;;
68446;BMP280;35789;48.414;12.768;2024-02-16T21:15:00;97400.0;;;
68446;BMP280;35789;48.414;12.768;2024-02-16T21:20:00;97410.0;;;
68446;BMP280;35789;48.414;12.768;2024-02-16T21:25:00;97410.0;;;
68446;BMP280;35789;48.414;12.768;2024-02-16T21:30:00;97410.0;;;
68446;BMP280;35789;48.414;12.768;2024-02-16T21:35:00;97420.0;;;
68446;BMP280;35789;48.414;12.768;2024-02-16T21:40:00;97420.0;;;
68446;BMP280;35789;48.414;12.768;2024-02-16T21:45:00;97420.0;;;
68446;BMP280;35789;48.414;12.768;2024-02-16T21:50:00;97420.0;;;
68446;BMP280;35789;48.414;12.768;2024-02-16T21:55:00;97430.0;;;
68446;BMP280;35789;48.414;12.768;2024-02-16T22:00:00;97430.0;;;
68446;BMP280;35789;48.414;12.768;2024-02-16T22:05:00;97430.0;;;
68446;BMP280;35789;48.414;12.768;2024-02-16T22:10:00;97440.0;;;
68446;BMP280;35789;48.414;12.768;2024-02-16T22:15:00;97440.0;;;
68446;BMP280;35789;48.414;12.768;2024-02-16T22:20:00;97450.0;;;
68446;BMP280;35789;48.414;12.768;2024-02-16T22:25:00;97450.0;;;
68446;BMP280;35789;48.414;12.768;2024-02-16T22:30:00;97450.0;;;
68446;BMP280;35789;48.414;12.768;2024-02-16T22:35:00;97450.0;;;
68446;BMP280;35789;48.414;12.768;2024-02-16T22:40:00;97460.0;;;
68446;BMP280;35789;48.414;12.768;2024-02-16T22:45:00;97460.0;;;
68446;BMP280;35789;48.414;12.768;2024-02-16T22:50:00;97460.0;;;
68446;BMP280;35789;48.414;12.768;2024-02-16T22:55:00;97460.0;;;
68446;BMP280;35789;48.414;12.768;2024-02-16T23:00:00;97470.0;;;
68446;BMP280;35789;48.414;12.768;2024-02-16T23:05:00;97470.0;;;
68446;BMP280;35789;48.414;12.768;2024-02-16T23:10:00;97470.0;;;
68446;BMP280;35789;48.414;12.768;2024-02-16T23:15:00;97470.0;;;
68446;BMP280;35789;48.414;12.768;2024-02-16T23:20:00;97480.0;;;
68446;BMP280;35789;48.414;12.768;2024-02-16T23:25:00;97480.0;;;
68446;BMP280;35789;48.414;12.768;2024-02-16T23:30:00;97480.0;;;
68446;BMP280;35789;48.414;12.768;2024-02-16T23:35:00;97480.0;;;
68446;BMP280;35789;48.414;12.768;2024-02-16T23:40:00;97490.0;;;
68446;BMP280;35789;48.414;12.768;2024-02-16T23:45:00;97490.0;;;
68446;BMP280;35789;48.414;12.768;2024-02-16T23:50:00;97500.0;;;
68446;BMP280;35789;48.414;12.768;2024-02-16T23:55:00;97500.0;;;
